Port Acres, Texas
Current Conditions -  °F | °C
As of 3:53 AM on Saturday 22 Nov 2014 (Local Time) from KBPT Reporting Station
Clear Clear  
Wind Chill: 14°   Ceiling: Unl
Heat Index: 14°   Visibility: 10mi
Dew Point: 12°   Wind: 13mph
Humidity: 87%   Direction: 100°E
Pressure: 30.13"   Gusts: NA
Location:  29.7569°N, 94.1898°W
Report Text: KBPT 220953Z AUTO 10011KT 10SM CLR 14/12 A3013 RMK AO2 SLP202 T01390117
Loading
Personal Weather Stations






























Interactive Weather Map New forecast layout! Learn more

10-Day Weather Forecast

Advertisements
Track Severe Weather on mobile